sensor_id;sensor_type;location;lat;lon;timestamp;P1;durP1;ratioP1;P2;durP2;ratioP2
7128;SDS011;3606;52.930;8.644;2023-07-31T00:00:12;4.40;;;3.00;;
7128;SDS011;3606;52.930;8.644;2023-07-31T00:02:38;6.13;;;3.60;;
7128;SDS011;3606;52.930;8.644;2023-07-31T00:05:03;5.97;;;3.43;;
7128;SDS011;3606;52.930;8.644;2023-07-31T00:07:29;6.67;;;3.20;;
7128;SDS011;3606;52.930;8.644;2023-07-31T00:09:55;7.90;;;3.47;;
7128;SDS011;3606;52.930;8.644;2023-07-31T00:12:21;4.70;;;3.03;;
7128;SDS011;3606;52.930;8.644;2023-07-31T00:14:47;4.67;;;3.10;;
7128;SDS011;3606;52.930;8.644;2023-07-31T00:17:13;3.67;;;2.57;;
7128;SDS011;3606;52.930;8.644;2023-07-31T00:19:39;13.53;;;3.40;;
7128;SDS011;3606;52.930;8.644;2023-07-31T00:22:04;7.10;;;3.30;;
7128;SDS011;3606;52.930;8.644;2023-07-31T00:24:30;5.07;;;3.33;;
7128;SDS011;3606;52.930;8.644;2023-07-31T00:26:56;9.67;;;3.17;;
7128;SDS011;3606;52.930;8.644;2023-07-31T00:29:21;5.47;;;2.90;;
7128;SDS011;3606;52.930;8.644;2023-07-31T00:31:47;6.00;;;3.13;;
7128;SDS011;3606;52.930;8.644;2023-07-31T00:34:12;6.03;;;3.67;;
7128;SDS011;3606;52.930;8.644;2023-07-31T00:36:38;7.80;;;3.07;;
7128;SDS011;3606;52.930;8.644;2023-07-31T00:39:03;5.17;;;3.20;;
7128;SDS011;3606;52.930;8.644;2023-07-31T00:41:29;6.20;;;2.80;;
7128;SDS011;3606;52.930;8.644;2023-07-31T00:43:55;4.10;;;2.80;;
7128;SDS011;3606;52.930;8.644;2023-07-31T00:46:21;8.97;;;3.30;;
7128;SDS011;3606;52.930;8.644;2023-07-31T00:48:46;4.27;;;3.00;;
7128;SDS011;3606;52.930;8.644;2023-07-31T00:51:12;3.33;;;2.50;;
7128;SDS011;3606;52.930;8.644;2023-07-31T00:53:38;4.87;;;2.57;;
7128;SDS011;3606;52.930;8.644;2023-07-31T00:56:05;3.23;;;2.77;;
7128;SDS011;3606;52.930;8.644;2023-07-31T00:58:31;3.30;;;2.60;;
7128;SDS011;3606;52.930;8.644;2023-07-31T01:00:57;3.93;;;2.83;;
7128;SDS011;3606;52.930;8.644;2023-07-31T01:03:22;3.07;;;2.60;;
7128;SDS011;3606;52.930;8.644;2023-07-31T01:06:03;5.27;;;2.80;;
7128;SDS011;3606;52.930;8.644;2023-07-31T01:08:44;5.87;;;2.60;;
7128;SDS011;3606;52.930;8.644;2023-07-31T01:11:17;5.47;;;3.23;;
7128;SDS011;3606;52.930;8.644;2023-07-31T01:13:56;5.83;;;2.80;;
7128;SDS011;3606;52.930;8.644;2023-07-31T01:16:22;6.03;;;2.80;;
7128;SDS011;3606;52.930;8.644;2023-07-31T01:18:49;6.43;;;2.73;;
7128;SDS011;3606;52.930;8.644;2023-07-31T01:21:21;5.13;;;3.30;;
7128;SDS011;3606;52.930;8.644;2023-07-31T01:26:30;5.37;;;2.80;;
7128;SDS011;3606;52.930;8.644;2023-07-31T01:29:01;4.80;;;3.27;;
7128;SDS011;3606;52.930;8.644;2023-07-31T01:31:33;3.67;;;2.67;;
7128;SDS011;3606;52.930;8.644;2023-07-31T01:34:01;4.07;;;2.90;;
7128;SDS011;3606;52.930;8.644;2023-07-31T01:36:28;4.20;;;2.83;;
7128;SDS011;3606;52.930;8.644;2023-07-31T01:38:59;4.63;;;3.00;;
7128;SDS011;3606;52.930;8.644;2023-07-31T01:41:25;3.67;;;3.23;;
7128;SDS011;3606;52.930;8.644;2023-07-31T01:43:51;4.33;;;3.17;;
7128;SDS011;3606;52.930;8.644;2023-07-31T01:46:17;6.47;;;3.60;;
7128;SDS011;3606;52.930;8.644;2023-07-31T01:48:42;4.87;;;3.70;;
7128;SDS011;3606;52.930;8.644;2023-07-31T01:51:08;5.07;;;3.43;;
7128;SDS011;3606;52.930;8.644;2023-07-31T01:53:33;5.70;;;3.67;;
7128;SDS011;3606;52.930;8.644;2023-07-31T01:55:59;4.20;;;3.70;;
7128;SDS011;3606;52.930;8.644;2023-07-31T01:58:25;4.93;;;3.30;;
7128;SDS011;3606;52.930;8.644;2023-07-31T02:00:50;6.77;;;3.70;;
7128;SDS011;3606;52.930;8.644;2023-07-31T02:03:16;6.90;;;3.60;;
7128;SDS011;3606;52.930;8.644;2023-07-31T02:05:44;5.43;;;3.70;;
7128;SDS011;3606;52.930;8.644;2023-07-31T02:08:14;4.10;;;3.70;;
7128;SDS011;3606;52.930;8.644;2023-07-31T02:10:40;3.93;;;3.53;;
7128;SDS011;3606;52.930;8.644;2023-07-31T02:13:06;4.83;;;3.87;;
7128;SDS011;3606;52.930;8.644;2023-07-31T02:15:32;5.13;;;3.80;;
7128;SDS011;3606;52.930;8.644;2023-07-31T02:17:58;4.23;;;3.83;;
7128;SDS011;3606;52.930;8.644;2023-07-31T02:20:23;5.60;;;3.57;;
7128;SDS011;3606;52.930;8.644;2023-07-31T02:22:49;4.67;;;3.70;;
7128;SDS011;3606;52.930;8.644;2023-07-31T02:25:15;5.00;;;3.90;;
7128;SDS011;3606;52.930;8.644;2023-07-31T02:27:40;6.27;;;3.90;;
7128;SDS011;3606;52.930;8.644;2023-07-31T02:30:06;5.93;;;3.53;;
7128;SDS011;3606;52.930;8.644;2023-07-31T02:32:32;5.27;;;3.77;;
7128;SDS011;3606;52.930;8.644;2023-07-31T02:34:58;4.50;;;3.53;;
7128;SDS011;3606;52.930;8.644;2023-07-31T02:37:23;5.93;;;3.87;;
7128;SDS011;3606;52.930;8.644;2023-07-31T02:39:49;5.43;;;4.00;;
7128;SDS011;3606;52.930;8.644;2023-07-31T02:42:15;5.47;;;3.90;;
7128;SDS011;3606;52.930;8.644;2023-07-31T02:44:40;4.20;;;3.80;;
7128;SDS011;3606;52.930;8.644;2023-07-31T02:47:06;4.30;;;3.90;;
7128;SDS011;3606;52.930;8.644;2023-07-31T02:49:32;5.83;;;3.90;;
7128;SDS011;3606;52.930;8.644;2023-07-31T02:51:57;5.50;;;3.53;;
7128;SDS011;3606;52.930;8.644;2023-07-31T02:54:23;5.13;;;3.50;;
7128;SDS011;3606;52.930;8.644;2023-07-31T02:56:48;4.23;;;3.57;;
7128;SDS011;3606;52.930;8.644;2023-07-31T02:59:14;4.13;;;3.73;;
7128;SDS011;3606;52.930;8.644;2023-07-31T03:01:39;4.33;;;3.63;;
7128;SDS011;3606;52.930;8.644;2023-07-31T03:04:05;5.23;;;3.40;;
7128;SDS011;3606;52.930;8.644;2023-07-31T03:06:31;4.00;;;3.53;;
7128;SDS011;3606;52.930;8.644;2023-07-31T03:08:56;4.50;;;3.70;;
7128;SDS011;3606;52.930;8.644;2023-07-31T03:11:22;5.77;;;3.53;;
7128;SDS011;3606;52.930;8.644;2023-07-31T03:13:47;4.00;;;3.60;;
7128;SDS011;3606;52.930;8.644;2023-07-31T03:16:13;4.57;;;3.73;;
7128;SDS011;3606;52.930;8.644;2023-07-31T03:18:38;4.37;;;3.97;;
7128;SDS011;3606;52.930;8.644;2023-07-31T03:21:04;4.07;;;3.67;;
7128;SDS011;3606;52.930;8.644;2023-07-31T03:23:30;4.27;;;3.83;;
7128;SDS011;3606;52.930;8.644;2023-07-31T03:25:56;5.27;;;4.47;;
7128;SDS011;3606;52.930;8.644;2023-07-31T03:28:26;4.87;;;4.30;;
7128;SDS011;3606;52.930;8.644;2023-07-31T03:30:51;6.50;;;4.20;;
7128;SDS011;3606;52.930;8.644;2023-07-31T03:33:18;6.17;;;4.00;;
7128;SDS011;3606;52.930;8.644;2023-07-31T03:35:44;5.70;;;4.47;;
7128;SDS011;3606;52.930;8.644;2023-07-31T03:38:10;5.70;;;4.10;;
7128;SDS011;3606;52.930;8.644;2023-07-31T03:40:35;4.30;;;3.60;;
7128;SDS011;3606;52.930;8.644;2023-07-31T03:43:01;4.57;;;4.17;;
7128;SDS011;3606;52.930;8.644;2023-07-31T03:45:26;4.87;;;4.13;;
7128;SDS011;3606;52.930;8.644;2023-07-31T03:47:52;4.10;;;3.57;;
7128;SDS011;3606;52.930;8.644;2023-07-31T03:50:19;4.70;;;4.10;;
7128;SDS011;3606;52.930;8.644;2023-07-31T03:52:45;4.57;;;4.13;;
7128;SDS011;3606;52.930;8.644;2023-07-31T03:55:10;5.17;;;3.83;;
7128;SDS011;3606;52.930;8.644;2023-07-31T03:57:36;6.87;;;4.03;;
7128;SDS011;3606;52.930;8.644;2023-07-31T04:00:01;4.40;;;3.90;;
7128;SDS011;3606;52.930;8.644;2023-07-31T04:02:27;6.00;;;3.60;;
7128;SDS011;3606;52.930;8.644;2023-07-31T04:04:53;5.67;;;3.97;;
7128;SDS011;3606;52.930;8.644;2023-07-31T04:07:19;6.23;;;4.30;;
7128;SDS011;3606;52.930;8.644;2023-07-31T04:09:44;5.23;;;4.00;;
7128;SDS011;3606;52.930;8.644;2023-07-31T04:12:10;4.20;;;3.80;;
7128;SDS011;3606;52.930;8.644;2023-07-31T04:14:35;4.50;;;3.77;;
7128;SDS011;3606;52.930;8.644;2023-07-31T04:17:01;4.20;;;3.57;;
7128;SDS011;3606;52.930;8.644;2023-07-31T04:19:26;4.60;;;3.40;;
7128;SDS011;3606;52.930;8.644;2023-07-31T04:21:52;5.10;;;3.90;;
7128;SDS011;3606;52.930;8.644;2023-07-31T04:24:17;4.77;;;3.20;;
7128;SDS011;3606;52.930;8.644;2023-07-31T04:26:49;4.47;;;3.27;;
7128;SDS011;3606;52.930;8.644;2023-07-31T04:29:15;3.40;;;3.10;;
7128;SDS011;3606;52.930;8.644;2023-07-31T04:31:41;3.27;;;2.97;;
7128;SDS011;3606;52.930;8.644;2023-07-31T04:34:06;3.30;;;3.00;;
7128;SDS011;3606;52.930;8.644;2023-07-31T04:36:32;3.90;;;2.70;;
7128;SDS011;3606;52.930;8.644;2023-07-31T04:38:59;3.97;;;3.10;;
7128;SDS011;3606;52.930;8.644;2023-07-31T04:41:25;3.50;;;2.67;;
7128;SDS011;3606;52.930;8.644;2023-07-31T04:43:50;3.13;;;2.83;;
7128;SDS011;3606;52.930;8.644;2023-07-31T04:46:16;3.23;;;2.93;;
7128;SDS011;3606;52.930;8.644;2023-07-31T04:48:42;6.17;;;2.47;;
7128;SDS011;3606;52.930;8.644;2023-07-31T04:51:07;2.60;;;2.40;;
7128;SDS011;3606;52.930;8.644;2023-07-31T04:53:34;2.93;;;2.63;;
7128;SDS011;3606;52.930;8.644;2023-07-31T04:56:00;3.37;;;2.70;;
7128;SDS011;3606;52.930;8.644;2023-07-31T04:58:26;3.03;;;2.10;;
7128;SDS011;3606;52.930;8.644;2023-07-31T05:00:51;2.23;;;2.03;;
7128;SDS011;3606;52.930;8.644;2023-07-31T05:03:17;2.90;;;2.27;;
7128;SDS011;3606;52.930;8.644;2023-07-31T05:05:42;2.20;;;2.03;;
7128;SDS011;3606;52.930;8.644;2023-07-31T05:08:08;2.50;;;2.00;;
7128;SDS011;3606;52.930;8.644;2023-07-31T05:10:34;2.83;;;2.20;;
7128;SDS011;3606;52.930;8.644;2023-07-31T05:12:59;2.67;;;2.10;;
7128;SDS011;3606;52.930;8.644;2023-07-31T05:15:25;2.40;;;2.13;;
7128;SDS011;3606;52.930;8.644;2023-07-31T05:17:50;3.40;;;2.53;;
7128;SDS011;3606;52.930;8.644;2023-07-31T05:20:16;3.00;;;2.07;;
7128;SDS011;3606;52.930;8.644;2023-07-31T05:22:41;2.40;;;2.20;;
7128;SDS011;3606;52.930;8.644;2023-07-31T05:25:07;3.70;;;2.23;;
7128;SDS011;3606;52.930;8.644;2023-07-31T05:27:33;2.67;;;2.30;;
7128;SDS011;3606;52.930;8.644;2023-07-31T05:29:58;2.70;;;2.10;;
7128;SDS011;3606;52.930;8.644;2023-07-31T05:32:27;3.20;;;2.30;;
7128;SDS011;3606;52.930;8.644;2023-07-31T05:34:53;4.20;;;2.53;;
7128;SDS011;3606;52.930;8.644;2023-07-31T05:37:19;3.70;;;2.77;;
7128;SDS011;3606;52.930;8.644;2023-07-31T05:39:44;2.90;;;2.70;;
7128;SDS011;3606;52.930;8.644;2023-07-31T05:42:10;2.63;;;2.40;;
7128;SDS011;3606;52.930;8.644;2023-07-31T05:44:36;3.40;;;2.77;;
7128;SDS011;3606;52.930;8.644;2023-07-31T05:47:01;4.13;;;3.10;;
7128;SDS011;3606;52.930;8.644;2023-07-31T05:49:27;3.57;;;2.87;;
7128;SDS011;3606;52.930;8.644;2023-07-31T05:51:53;2.87;;;2.67;;
7128;SDS011;3606;52.930;8.644;2023-07-31T05:54:19;2.97;;;2.77;;
7128;SDS011;3606;52.930;8.644;2023-07-31T05:56:44;2.63;;;2.43;;
7128;SDS011;3606;52.930;8.644;2023-07-31T05:59:12;2.53;;;2.33;;
7128;SDS011;3606;52.930;8.644;2023-07-31T06:01:38;2.83;;;2.53;;
7128;SDS011;3606;52.930;8.644;2023-07-31T06:04:04;2.37;;;2.17;;
7128;SDS011;3606;52.930;8.644;2023-07-31T06:06:30;2.23;;;2.07;;
7128;SDS011;3606;52.930;8.644;2023-07-31T06:08:55;2.17;;;2.03;;
7128;SDS011;3606;52.930;8.644;2023-07-31T06:11:21;2.17;;;1.97;;
7128;SDS011;3606;52.930;8.644;2023-07-31T06:13:47;2.40;;;1.80;;
7128;SDS011;3606;52.930;8.644;2023-07-31T06:16:14;2.03;;;1.83;;
7128;SDS011;3606;52.930;8.644;2023-07-31T06:18:40;2.33;;;2.13;;
7128;SDS011;3606;52.930;8.644;2023-07-31T06:21:06;2.83;;;1.93;;
7128;SDS011;3606;52.930;8.644;2023-07-31T06:23:32;1.90;;;1.80;;
7128;SDS011;3606;52.930;8.644;2023-07-31T06:25:57;2.20;;;2.00;;
7128;SDS011;3606;52.930;8.644;2023-07-31T06:28:29;2.10;;;1.90;;
7128;SDS011;3606;52.930;8.644;2023-07-31T06:30:57;1.80;;;1.70;;
7128;SDS011;3606;52.930;8.644;2023-07-31T06:33:23;2.20;;;2.00;;
7128;SDS011;3606;52.930;8.644;2023-07-31T06:35:49;1.90;;;1.80;;
7128;SDS011;3606;52.930;8.644;2023-07-31T06:38:15;1.80;;;1.70;;
7128;SDS011;3606;52.930;8.644;2023-07-31T06:40:40;2.13;;;1.93;;
7128;SDS011;3606;52.930;8.644;2023-07-31T06:43:06;2.33;;;2.10;;
7128;SDS011;3606;52.930;8.644;2023-07-31T06:45:34;2.27;;;2.07;;
7128;SDS011;3606;52.930;8.644;2023-07-31T06:48:01;2.70;;;2.17;;
7128;SDS011;3606;52.930;8.644;2023-07-31T06:50:27;3.10;;;2.50;;
7128;SDS011;3606;52.930;8.644;2023-07-31T06:52:54;2.90;;;2.70;;
7128;SDS011;3606;52.930;8.644;2023-07-31T06:55:19;3.50;;;3.20;;
7128;SDS011;3606;52.930;8.644;2023-07-31T06:57:46;4.20;;;3.57;;
7128;SDS011;3606;52.930;8.644;2023-07-31T07:00:13;4.17;;;3.73;;
7128;SDS011;3606;52.930;8.644;2023-07-31T07:02:39;3.80;;;3.47;;
7128;SDS011;3606;52.930;8.644;2023-07-31T07:05:04;5.50;;;3.77;;
7128;SDS011;3606;52.930;8.644;2023-07-31T07:07:31;4.50;;;3.80;;
7128;SDS011;3606;52.930;8.644;2023-07-31T07:09:57;5.80;;;4.20;;
7128;SDS011;3606;52.930;8.644;2023-07-31T07:12:24;5.80;;;4.23;;
7128;SDS011;3606;52.930;8.644;2023-07-31T07:14:50;9.40;;;4.50;;
7128;SDS011;3606;52.930;8.644;2023-07-31T07:17:18;7.17;;;4.93;;
7128;SDS011;3606;52.930;8.644;2023-07-31T07:19:44;7.63;;;5.07;;
7128;SDS011;3606;52.930;8.644;2023-07-31T07:22:10;6.07;;;4.53;;
7128;SDS011;3606;52.930;8.644;2023-07-31T07:24:36;8.20;;;5.20;;
7128;SDS011;3606;52.930;8.644;2023-07-31T07:27:02;9.80;;;6.03;;
7128;SDS011;3606;52.930;8.644;2023-07-31T07:29:28;9.63;;;6.47;;
7128;SDS011;3606;52.930;8.644;2023-07-31T07:31:53;8.17;;;5.83;;
7128;SDS011;3606;52.930;8.644;2023-07-31T07:34:19;9.87;;;6.03;;
7128;SDS011;3606;52.930;8.644;2023-07-31T07:36:47;14.20;;;7.07;;
7128;SDS011;3606;52.930;8.644;2023-07-31T07:39:14;18.80;;;8.40;;
7128;SDS011;3606;52.930;8.644;2023-07-31T07:41:39;13.03;;;8.13;;
7128;SDS011;3606;52.930;8.644;2023-07-31T07:44:05;14.93;;;8.03;;
7128;SDS011;3606;52.930;8.644;2023-07-31T07:46:30;19.83;;;9.63;;
7128;SDS011;3606;52.930;8.644;2023-07-31T07:48:56;15.93;;;9.00;;
7128;SDS011;3606;52.930;8.644;2023-07-31T07:51:21;20.97;;;9.50;;
7128;SDS011;3606;52.930;8.644;2023-07-31T07:53:47;22.50;;;10.30;;
7128;SDS011;3606;52.930;8.644;2023-07-31T07:56:12;19.73;;;10.03;;
7128;SDS011;3606;52.930;8.644;2023-07-31T07:58:38;18.43;;;9.30;;
7128;SDS011;3606;52.930;8.644;2023-07-31T08:01:03;16.97;;;9.97;;
7128;SDS011;3606;52.930;8.644;2023-07-31T08:03:29;23.40;;;10.13;;
7128;SDS011;3606;52.930;8.644;2023-07-31T08:06:01;23.00;;;10.90;;
7128;SDS011;3606;52.930;8.644;2023-07-31T08:08:27;22.87;;;10.27;;
7128;SDS011;3606;52.930;8.644;2023-07-31T08:10:53;20.60;;;10.60;;
7128;SDS011;3606;52.930;8.644;2023-07-31T08:13:19;18.77;;;9.60;;
7128;SDS011;3606;52.930;8.644;2023-07-31T08:15:45;16.57;;;9.33;;
7128;SDS011;3606;52.930;8.644;2023-07-31T08:18:11;17.77;;;10.60;;
7128;SDS011;3606;52.930;8.644;2023-07-31T08:20:37;22.23;;;9.97;;
7128;SDS011;3606;52.930;8.644;2023-07-31T08:23:03;16.80;;;9.23;;
7128;SDS011;3606;52.930;8.644;2023-07-31T08:25:29;21.10;;;9.33;;
7128;SDS011;3606;52.930;8.644;2023-07-31T08:27:54;21.43;;;10.17;;
7128;SDS011;3606;52.930;8.644;2023-07-31T08:30:20;14.70;;;8.80;;
7128;SDS011;3606;52.930;8.644;2023-07-31T08:32:46;17.93;;;9.07;;
7128;SDS011;3606;52.930;8.644;2023-07-31T08:35:12;22.60;;;9.13;;
7128;SDS011;3606;52.930;8.644;2023-07-31T08:37:39;16.57;;;8.30;;
7128;SDS011;3606;52.930;8.644;2023-07-31T08:40:05;17.47;;;8.63;;
7128;SDS011;3606;52.930;8.644;2023-07-31T08:42:31;15.40;;;7.40;;
7128;SDS011;3606;52.930;8.644;2023-07-31T08:44:57;15.93;;;7.77;;
7128;SDS011;3606;52.930;8.644;2023-07-31T08:47:25;16.13;;;7.67;;
7128;SDS011;3606;52.930;8.644;2023-07-31T08:49:52;12.93;;;7.00;;
7128;SDS011;3606;52.930;8.644;2023-07-31T08:52:19;12.23;;;6.77;;
7128;SDS011;3606;52.930;8.644;2023-07-31T08:54:45;12.30;;;6.03;;
7128;SDS011;3606;52.930;8.644;2023-07-31T08:57:11;13.60;;;6.50;;
7128;SDS011;3606;52.930;8.644;2023-07-31T08:59:37;11.67;;;5.93;;
7128;SDS011;3606;52.930;8.644;2023-07-31T09:02:07;12.53;;;6.00;;
7128;SDS011;3606;52.930;8.644;2023-07-31T09:04:34;10.27;;;5.27;;
7128;SDS011;3606;52.930;8.644;2023-07-31T09:07:00;13.40;;;5.63;;
7128;SDS011;3606;52.930;8.644;2023-07-31T09:09:29;10.07;;;5.43;;
7128;SDS011;3606;52.930;8.644;2023-07-31T09:11:55;11.27;;;5.13;;
7128;SDS011;3606;52.930;8.644;2023-07-31T09:14:24;9.23;;;5.70;;
7128;SDS011;3606;52.930;8.644;2023-07-31T09:16:54;9.23;;;5.10;;
7128;SDS011;3606;52.930;8.644;2023-07-31T09:19:32;10.00;;;5.17;;
7128;SDS011;3606;52.930;8.644;2023-07-31T09:21:59;10.43;;;5.83;;
7128;SDS011;3606;52.930;8.644;2023-07-31T09:24:25;12.67;;;5.23;;
7128;SDS011;3606;52.930;8.644;2023-07-31T09:26:53;9.60;;;5.10;;
7128;SDS011;3606;52.930;8.644;2023-07-31T09:29:20;7.77;;;5.00;;
7128;SDS011;3606;52.930;8.644;2023-07-31T09:31:46;10.07;;;4.77;;
7128;SDS011;3606;52.930;8.644;2023-07-31T09:34:11;7.23;;;5.13;;
7128;SDS011;3606;52.930;8.644;2023-07-31T09:36:48;9.83;;;5.40;;
7128;SDS011;3606;52.930;8.644;2023-07-31T09:39:15;9.60;;;5.53;;
7128;SDS011;3606;52.930;8.644;2023-07-31T09:41:47;10.23;;;4.63;;
7128;SDS011;3606;52.930;8.644;2023-07-31T09:44:18;13.13;;;5.10;;
7128;SDS011;3606;52.930;8.644;2023-07-31T09:46:44;10.00;;;5.20;;
7128;SDS011;3606;52.930;8.644;2023-07-31T09:49:10;8.43;;;4.53;;
7128;SDS011;3606;52.930;8.644;2023-07-31T09:51:39;8.60;;;4.40;;
7128;SDS011;3606;52.930;8.644;2023-07-31T09:54:12;9.30;;;4.63;;
7128;SDS011;3606;52.930;8.644;2023-07-31T09:56:42;6.07;;;4.03;;
7128;SDS011;3606;52.930;8.644;2023-07-31T09:59:10;6.33;;;4.10;;
7128;SDS011;3606;52.930;8.644;2023-07-31T10:01:38;6.77;;;4.30;;
7128;SDS011;3606;52.930;8.644;2023-07-31T10:04:09;7.63;;;4.10;;
7128;SDS011;3606;52.930;8.644;2023-07-31T10:06:36;4.20;;;3.37;;
7128;SDS011;3606;52.930;8.644;2023-07-31T10:09:05;5.40;;;3.13;;
7128;SDS011;3606;52.930;8.644;2023-07-31T10:11:37;6.03;;;3.40;;
7128;SDS011;3606;52.930;8.644;2023-07-31T10:14:08;3.80;;;2.83;;
7128;SDS011;3606;52.930;8.644;2023-07-31T10:16:37;3.13;;;2.70;;
7128;SDS011;3606;52.930;8.644;2023-07-31T10:19:03;3.17;;;2.50;;
7128;SDS011;3606;52.930;8.644;2023-07-31T10:21:31;3.87;;;2.30;;
7128;SDS011;3606;52.930;8.644;2023-07-31T10:23:59;4.30;;;2.63;;
7128;SDS011;3606;52.930;8.644;2023-07-31T10:26:27;2.30;;;2.10;;
7128;SDS011;3606;52.930;8.644;2023-07-31T10:28:54;2.30;;;2.10;;
7128;SDS011;3606;52.930;8.644;2023-07-31T10:31:20;4.03;;;2.13;;
7128;SDS011;3606;52.930;8.644;2023-07-31T10:33:46;2.43;;;1.70;;
7128;SDS011;3606;52.930;8.644;2023-07-31T10:36:21;2.47;;;1.80;;
7128;SDS011;3606;52.930;8.644;2023-07-31T10:38:50;3.50;;;2.50;;
7128;SDS011;3606;52.930;8.644;2023-07-31T10:41:18;1.60;;;1.50;;
7128;SDS011;3606;52.930;8.644;2023-07-31T10:43:45;1.50;;;1.40;;
7128;SDS011;3606;52.930;8.644;2023-07-31T10:46:12;1.90;;;1.40;;
7128;SDS011;3606;52.930;8.644;2023-07-31T10:48:40;1.80;;;1.47;;
7128;SDS011;3606;52.930;8.644;2023-07-31T10:51:10;1.47;;;1.37;;
7128;SDS011;3606;52.930;8.644;2023-07-31T10:53:37;1.30;;;1.20;;
7128;SDS011;3606;52.930;8.644;2023-07-31T10:56:05;1.40;;;1.23;;
7128;SDS011;3606;52.930;8.644;2023-07-31T10:58:32;1.00;;;1.00;;
7128;SDS011;3606;52.930;8.644;2023-07-31T11:00:59;1.37;;;1.27;;
7128;SDS011;3606;52.930;8.644;2023-07-31T11:03:26;1.20;;;1.10;;
7128;SDS011;3606;52.930;8.644;2023-07-31T11:06:05;1.20;;;1.10;;
7128;SDS011;3606;52.930;8.644;2023-07-31T11:08:32;2.03;;;1.83;;
7128;SDS011;3606;52.930;8.644;2023-07-31T11:13:27;1.53;;;1.43;;
7128;SDS011;3606;52.930;8.644;2023-07-31T11:15:54;1.83;;;1.73;;
7128;SDS011;3606;52.930;8.644;2023-07-31T11:18:19;2.17;;;1.60;;
7128;SDS011;3606;52.930;8.644;2023-07-31T11:20:45;2.00;;;1.50;;
7128;SDS011;3606;52.930;8.644;2023-07-31T11:23:11;1.63;;;1.30;;
7128;SDS011;3606;52.930;8.644;2023-07-31T11:25:37;1.27;;;1.17;;
7128;SDS011;3606;52.930;8.644;2023-07-31T11:28:07;1.03;;;1.00;;
7128;SDS011;3606;52.930;8.644;2023-07-31T11:30:40;1.60;;;1.13;;
7128;SDS011;3606;52.930;8.644;2023-07-31T11:33:06;1.63;;;1.53;;
7128;SDS011;3606;52.930;8.644;2023-07-31T11:35:34;2.57;;;1.67;;
7128;SDS011;3606;52.930;8.644;2023-07-31T11:38:02;1.33;;;1.23;;
7128;SDS011;3606;52.930;8.644;2023-07-31T11:40:28;1.20;;;1.20;;
7128;SDS011;3606;52.930;8.644;2023-07-31T11:42:57;1.57;;;1.40;;
7128;SDS011;3606;52.930;8.644;2023-07-31T11:45:24;1.00;;;1.00;;
7128;SDS011;3606;52.930;8.644;2023-07-31T11:47:53;1.30;;;1.20;;
7128;SDS011;3606;52.930;8.644;2023-07-31T11:50:20;1.50;;;1.40;;
7128;SDS011;3606;52.930;8.644;2023-07-31T11:52:46;1.90;;;1.30;;
7128;SDS011;3606;52.930;8.644;2023-07-31T11:55:15;1.87;;;1.20;;
7128;SDS011;3606;52.930;8.644;2023-07-31T11:57:41;1.27;;;1.20;;
7128;SDS011;3606;52.930;8.644;2023-07-31T12:00:10;2.00;;;1.30;;
7128;SDS011;3606;52.930;8.644;2023-07-31T12:02:38;1.50;;;1.40;;
7128;SDS011;3606;52.930;8.644;2023-07-31T12:05:10;1.50;;;1.30;;
7128;SDS011;3606;52.930;8.644;2023-07-31T12:07:44;1.73;;;1.60;;
7128;SDS011;3606;52.930;8.644;2023-07-31T12:10:29;1.90;;;1.80;;
7128;SDS011;3606;52.930;8.644;2023-07-31T12:13:00;1.80;;;1.70;;
7128;SDS011;3606;52.930;8.644;2023-07-31T12:18:03;2.03;;;1.83;;
7128;SDS011;3606;52.930;8.644;2023-07-31T12:20:29;3.57;;;2.07;;
7128;SDS011;3606;52.930;8.644;2023-07-31T12:22:55;4.03;;;2.10;;
7128;SDS011;3606;52.930;8.644;2023-07-31T12:25:22;2.30;;;2.10;;
7128;SDS011;3606;52.930;8.644;2023-07-31T12:27:53;3.07;;;2.27;;
7128;SDS011;3606;52.930;8.644;2023-07-31T12:30:34;3.33;;;2.30;;
7128;SDS011;3606;52.930;8.644;2023-07-31T12:33:03;2.27;;;2.07;;
7128;SDS011;3606;52.930;8.644;2023-07-31T12:35:37;4.27;;;2.13;;
7128;SDS011;3606;52.930;8.644;2023-07-31T12:38:05;2.10;;;2.00;;
7128;SDS011;3606;52.930;8.644;2023-07-31T12:40:31;4.00;;;2.47;;
7128;SDS011;3606;52.930;8.644;2023-07-31T12:42:57;2.97;;;2.40;;
7128;SDS011;3606;52.930;8.644;2023-07-31T12:45:23;2.50;;;2.30;;
7128;SDS011;3606;52.930;8.644;2023-07-31T12:47:48;2.67;;;2.00;;
7128;SDS011;3606;52.930;8.644;2023-07-31T12:50:15;3.73;;;2.60;;
7128;SDS011;3606;52.930;8.644;2023-07-31T12:52:42;2.33;;;2.10;;
7128;SDS011;3606;52.930;8.644;2023-07-31T12:55:07;3.57;;;2.67;;
7128;SDS011;3606;52.930;8.644;2023-07-31T12:57:33;2.83;;;2.30;;
7128;SDS011;3606;52.930;8.644;2023-07-31T12:59:59;2.83;;;2.57;;
7128;SDS011;3606;52.930;8.644;2023-07-31T13:02:25;2.83;;;2.53;;
7128;SDS011;3606;52.930;8.644;2023-07-31T13:04:50;3.77;;;2.63;;
7128;SDS011;3606;52.930;8.644;2023-07-31T13:07:16;3.00;;;2.70;;
7128;SDS011;3606;52.930;8.644;2023-07-31T13:09:41;3.13;;;2.83;;
7128;SDS011;3606;52.930;8.644;2023-07-31T13:12:07;3.10;;;2.80;;
7128;SDS011;3606;52.930;8.644;2023-07-31T13:14:33;4.53;;;3.20;;
7128;SDS011;3606;52.930;8.644;2023-07-31T13:16:59;3.67;;;3.30;;
7128;SDS011;3606;52.930;8.644;2023-07-31T13:19:24;5.33;;;3.30;;
7128;SDS011;3606;52.930;8.644;2023-07-31T13:21:50;3.87;;;3.37;;
7128;SDS011;3606;52.930;8.644;2023-07-31T13:24:15;3.40;;;3.00;;
7128;SDS011;3606;52.930;8.644;2023-07-31T13:26:41;4.90;;;3.73;;
7128;SDS011;3606;52.930;8.644;2023-07-31T13:29:06;3.63;;;3.33;;
7128;SDS011;3606;52.930;8.644;2023-07-31T13:31:32;4.10;;;3.07;;
7128;SDS011;3606;52.930;8.644;2023-07-31T13:33:57;4.37;;;3.43;;
7128;SDS011;3606;52.930;8.644;2023-07-31T13:36:23;4.27;;;3.70;;
7128;SDS011;3606;52.930;8.644;2023-07-31T13:38:49;6.47;;;3.63;;
7128;SDS011;3606;52.930;8.644;2023-07-31T13:41:14;4.50;;;3.90;;
7128;SDS011;3606;52.930;8.644;2023-07-31T13:43:40;4.30;;;3.90;;
7128;SDS011;3606;52.930;8.644;2023-07-31T13:46:06;4.40;;;4.00;;
7128;SDS011;3606;52.930;8.644;2023-07-31T13:48:35;4.70;;;4.30;;
7128;SDS011;3606;52.930;8.644;2023-07-31T13:51:01;6.97;;;4.53;;
7128;SDS011;3606;52.930;8.644;2023-07-31T13:53:27;6.27;;;4.60;;
7128;SDS011;3606;52.930;8.644;2023-07-31T13:55:53;5.03;;;4.50;;
7128;SDS011;3606;52.930;8.644;2023-07-31T13:58:20;8.23;;;4.73;;
7128;SDS011;3606;52.930;8.644;2023-07-31T14:00:46;5.73;;;4.60;;
7128;SDS011;3606;52.930;8.644;2023-07-31T14:03:11;6.30;;;5.50;;
7128;SDS011;3606;52.930;8.644;2023-07-31T14:05:37;6.60;;;4.90;;
7128;SDS011;3606;52.930;8.644;2023-07-31T14:08:03;6.17;;;5.20;;
7128;SDS011;3606;52.930;8.644;2023-07-31T14:10:28;6.20;;;5.20;;
7128;SDS011;3606;52.930;8.644;2023-07-31T14:12:54;5.33;;;4.83;;
7128;SDS011;3606;52.930;8.644;2023-07-31T14:15:20;5.77;;;5.23;;
7128;SDS011;3606;52.930;8.644;2023-07-31T14:17:45;6.47;;;5.33;;
7128;SDS011;3606;52.930;8.644;2023-07-31T14:20:11;6.60;;;5.00;;
7128;SDS011;3606;52.930;8.644;2023-07-31T14:22:37;5.50;;;4.93;;
7128;SDS011;3606;52.930;8.644;2023-07-31T14:25:03;5.23;;;4.73;;
7128;SDS011;3606;52.930;8.644;2023-07-31T14:27:29;7.57;;;5.00;;
7128;SDS011;3606;52.930;8.644;2023-07-31T14:29:55;5.57;;;5.07;;
7128;SDS011;3606;52.930;8.644;2023-07-31T14:32:21;5.83;;;5.27;;
7128;SDS011;3606;52.930;8.644;2023-07-31T14:34:48;5.90;;;4.53;;
7128;SDS011;3606;52.930;8.644;2023-07-31T14:37:14;8.03;;;5.20;;
7128;SDS011;3606;52.930;8.644;2023-07-31T14:39:39;6.07;;;5.30;;
7128;SDS011;3606;52.930;8.644;2023-07-31T14:42:05;5.57;;;5.00;;
7128;SDS011;3606;52.930;8.644;2023-07-31T14:44:30;6.10;;;4.90;;
7128;SDS011;3606;52.930;8.644;2023-07-31T14:46:56;5.60;;;5.07;;
7128;SDS011;3606;52.930;8.644;2023-07-31T14:49:22;7.47;;;4.97;;
7128;SDS011;3606;52.930;8.644;2023-07-31T14:51:47;6.10;;;5.50;;
7128;SDS011;3606;52.930;8.644;2023-07-31T14:54:13;7.43;;;5.37;;
7128;SDS011;3606;52.930;8.644;2023-07-31T14:56:38;5.73;;;5.20;;
7128;SDS011;3606;52.930;8.644;2023-07-31T14:59:04;6.50;;;5.73;;
7128;SDS011;3606;52.930;8.644;2023-07-31T15:01:29;5.60;;;5.10;;
7128;SDS011;3606;52.930;8.644;2023-07-31T15:03:55;8.37;;;5.73;;
7128;SDS011;3606;52.930;8.644;2023-07-31T15:06:20;6.00;;;4.77;;
7128;SDS011;3606;52.930;8.644;2023-07-31T15:08:46;5.80;;;4.87;;
7128;SDS011;3606;52.930;8.644;2023-07-31T15:11:12;7.47;;;5.17;;
7128;SDS011;3606;52.930;8.644;2023-07-31T15:13:38;5.67;;;4.60;;
7128;SDS011;3606;52.930;8.644;2023-07-31T15:16:03;4.47;;;4.03;;